createdAt,value
2022-11-04T00:01:46.732Z,8.42
2022-11-04T00:04:16.457Z,8.33
2022-11-04T00:06:44.662Z,8.20
2022-11-04T00:09:15.806Z,8.40
2022-11-04T00:12:03.380Z,8.61
2022-11-04T00:14:32.024Z,8.65
2022-11-04T00:17:38.929Z,8.70
2022-11-04T00:20:26.073Z,8.54
2022-11-04T00:23:12.762Z,8.41
2022-11-04T00:25:59.865Z,8.14
2022-11-04T00:28:45.998Z,7.77
2022-11-04T00:31:32.796Z,7.70
2022-11-04T00:34:00.869Z,7.66
2022-11-04T00:36:28.945Z,7.81
2022-11-04T00:38:57.086Z,8.00
2022-11-04T00:41:29.145Z,8.01
2022-11-04T00:44:04.679Z,7.91
2022-11-04T00:46:33.815Z,7.95
2022-11-04T00:49:02.055Z,8.19
2022-11-04T00:51:30.338Z,8.28
2022-11-04T00:53:58.433Z,8.20
2022-11-04T00:56:26.881Z,8.23
2022-11-04T00:58:54.833Z,8.03
2022-11-04T01:01:23.052Z,7.83
2022-11-04T01:03:53.456Z,7.72
2022-11-04T01:06:22.251Z,7.82
2022-11-04T01:08:54.981Z,7.83
2022-11-04T01:11:22.896Z,7.88
2022-11-04T01:13:51.699Z,7.97
2022-11-04T01:16:20.536Z,7.94
2022-11-04T01:18:49.287Z,7.79
2022-11-04T01:21:17.958Z,7.74
2022-11-04T01:23:46.634Z,7.80
2022-11-04T01:26:16.481Z,7.95
2022-11-04T01:28:45.324Z,8.12
2022-11-04T01:31:14.895Z,8.18
2022-11-04T01:33:42.826Z,8.04
2022-11-04T01:36:11.089Z,8.03
2022-11-04T01:38:39.375Z,7.92
2022-11-04T01:41:08.665Z,7.79
2022-11-04T01:43:48.953Z,7.74
2022-11-04T01:46:22.215Z,7.79
2022-11-04T01:48:51.799Z,7.76
2022-11-04T01:51:20.714Z,7.83
2022-11-04T01:53:50.570Z,7.91
2022-11-04T01:56:20.842Z,7.97
2022-11-04T01:58:53.554Z,8.01
2022-11-04T02:01:21.680Z,7.67
2022-11-04T02:03:54.780Z,7.37
2022-11-04T02:06:23.138Z,7.22
2022-11-04T02:08:51.228Z,7.39
2022-11-04T02:11:39.486Z,7.42
2022-11-04T02:14:07.543Z,7.49
2022-11-04T02:16:45.613Z,7.47
2022-11-04T02:19:16.791Z,7.65
2022-11-04T02:21:44.941Z,7.72
2022-11-04T02:24:31.717Z,7.80
2022-11-04T02:27:18.583Z,7.83
2022-11-04T02:29:49.831Z,7.76
2022-11-04T02:32:24.097Z,7.55
2022-11-04T02:35:01.551Z,7.65
2022-11-04T02:40:39.702Z,7.78
2022-11-04T02:43:28.317Z,7.70
2022-11-04T02:46:07.746Z,7.60
2022-11-04T02:48:46.980Z,7.45
2022-11-04T02:51:14.857Z,7.25
2022-11-04T02:53:45.776Z,7.18
2022-11-04T02:56:15.088Z,7.32
2022-11-04T02:58:53.971Z,7.56
2022-11-04T03:01:24.517Z,7.67
2022-11-04T03:03:56.159Z,7.85
2022-11-04T03:06:25.771Z,8.10
2022-11-04T03:08:54.681Z,8.42
2022-11-04T03:11:24.762Z,8.58
2022-11-04T03:14:07.491Z,8.69
2022-11-04T03:16:38.553Z,9.10
2022-11-04T03:19:15.226Z,9.38
2022-11-04T03:21:45.930Z,9.46
2022-11-04T03:24:14.341Z,9.46
2022-11-04T03:26:49.759Z,9.40
2022-11-04T03:29:24.167Z,9.31
2022-11-04T03:32:01.900Z,9.24
2022-11-04T03:34:30.681Z,9.26
2022-11-04T03:36:59.062Z,9.21
2022-11-04T03:39:27.335Z,9.17
2022-11-04T03:42:00.017Z,9.14
2022-11-04T03:44:29.829Z,9.19
2022-11-04T03:46:57.831Z,9.34
2022-11-04T03:49:26.176Z,9.46
2022-11-04T03:51:54.396Z,9.43
2022-11-04T03:54:22.700Z,9.35
2022-11-04T03:57:05.273Z,9.22
2022-11-04T03:59:36.204Z,9.16
2022-11-04T04:02:04.231Z,9.07
2022-11-04T04:04:35.019Z,8.92
2022-11-04T04:07:06.374Z,8.74
2022-11-04T04:09:53.249Z,8.62
2022-11-04T04:12:27.810Z,8.52
2022-11-04T04:14:59.038Z,8.38
2022-11-04T04:17:31.476Z,8.19
2022-11-04T04:20:05.304Z,8.20
2022-11-04T04:22:49.225Z,8.11
2022-11-04T04:25:36.763Z,8.16
2022-11-04T04:28:05.232Z,8.14
2022-11-04T04:30:33.866Z,8.21
2022-11-04T04:33:14.012Z,8.33
2022-11-04T04:35:44.618Z,8.33
2022-11-04T04:38:32.118Z,8.25
2022-11-04T04:41:22.720Z,8.19
2022-11-04T04:44:10.085Z,8.10
2022-11-04T04:46:39.071Z,8.07
2022-11-04T04:49:07.920Z,8.00
2022-11-04T04:51:38.956Z,8.05
2022-11-04T04:54:07.358Z,8.09
2022-11-04T04:56:35.379Z,8.10
2022-11-04T04:59:06.050Z,8.10
2022-11-04T05:01:34.391Z,8.11
2022-11-04T05:04:02.704Z,8.03
2022-11-04T05:06:30.962Z,7.94
2022-11-04T05:08:59.139Z,7.81
2022-11-04T05:11:27.540Z,7.83
2022-11-04T05:13:55.857Z,7.87
2022-11-04T05:16:23.966Z,7.83
2022-11-04T05:18:52.779Z,7.88
2022-11-04T05:21:20.818Z,7.98
2022-11-04T05:23:48.711Z,8.08
2022-11-04T05:26:16.585Z,8.20
2022-11-04T05:28:45.134Z,8.42
2022-11-04T05:31:13.177Z,8.73
2022-11-04T05:33:41.434Z,8.94
2022-11-04T05:36:13.748Z,9.19
2022-11-04T05:38:42.469Z,8.90
2022-11-04T05:41:12.117Z,9.00
2022-11-04T05:43:40.325Z,9.38
2022-11-04T05:46:08.383Z,9.24
2022-11-04T05:48:40.307Z,9.30
2022-11-04T05:51:12.616Z,9.53
2022-11-04T05:53:41.022Z,9.53
2022-11-04T05:56:09.167Z,9.69
2022-11-04T05:58:37.134Z,10.20
2022-11-04T06:01:12.600Z,10.53
2022-11-04T06:03:40.751Z,10.60
2022-11-04T06:06:08.729Z,10.76
2022-11-04T06:08:39.915Z,10.70
2022-11-04T06:11:10.697Z,10.53
2022-11-04T06:13:38.661Z,10.60
2022-11-04T06:16:07.465Z,10.75
2022-11-04T06:18:35.572Z,10.72
2022-11-04T06:21:30.000Z,9.95
2022-11-04T06:23:59.251Z,9.71
2022-11-04T06:26:28.698Z,9.66
2022-11-04T06:28:57.119Z,9.60
2022-11-04T06:31:25.064Z,9.89
2022-11-04T06:33:53.274Z,10.14
2022-11-04T06:36:21.164Z,10.35
2022-11-04T06:38:49.163Z,10.52
2022-11-04T06:41:17.605Z,10.62
2022-11-04T06:43:45.699Z,10.54
2022-11-04T06:46:28.884Z,10.34
2022-11-04T06:48:57.226Z,10.27
2022-11-04T06:51:25.806Z,10.44
2022-11-04T06:53:54.151Z,10.66
2022-11-04T06:56:22.332Z,10.75
2022-11-04T06:58:51.240Z,10.76
2022-11-04T07:01:22.112Z,10.71
2022-11-04T07:03:51.341Z,10.70
2022-11-04T07:06:20.074Z,10.76
2022-11-04T07:08:48.638Z,10.93
2022-11-04T07:11:17.590Z,11.10
2022-11-04T07:13:45.809Z,11.14
2022-11-04T07:16:15.618Z,11.13
2022-11-04T07:18:43.554Z,11.35
2022-11-04T07:21:12.526Z,11.49
2022-11-04T07:23:40.744Z,11.57
2022-11-04T07:26:11.586Z,11.70
2022-11-04T07:28:40.552Z,11.60
2022-11-04T07:31:11.108Z,11.76
2022-11-04T07:33:39.154Z,11.93
2022-11-04T07:36:08.912Z,11.90
2022-11-04T07:38:37.142Z,11.81
2022-11-04T07:41:05.439Z,11.77
2022-11-04T07:43:33.609Z,11.89
2022-11-04T07:46:02.575Z,12.15
2022-11-04T07:48:31.272Z,12.32
2022-11-04T07:51:00.057Z,12.50
2022-11-04T07:53:29.607Z,12.74
2022-11-04T07:55:58.552Z,12.81
2022-11-04T07:58:26.741Z,12.79
2022-11-04T08:01:01.667Z,12.77
2022-11-04T08:03:29.834Z,12.89
2022-11-04T08:05:58.732Z,13.03
2022-11-04T08:08:27.628Z,13.10
2022-11-04T08:10:57.178Z,13.03
2022-11-04T08:13:30.696Z,13.05
2022-11-04T08:16:02.830Z,13.13
2022-11-04T08:18:34.632Z,13.12
2022-11-04T08:21:04.170Z,12.97
2022-11-04T08:23:32.914Z,13.03
2022-11-04T08:26:01.843Z,13.14
2022-11-04T08:28:30.127Z,13.16
2022-11-04T08:30:59.297Z,13.16
2022-11-04T08:33:27.614Z,13.19
2022-11-04T08:35:58.632Z,13.24
2022-11-04T08:38:26.601Z,13.37
2022-11-04T08:41:00.082Z,13.41
2022-11-04T08:43:28.753Z,13.41
2022-11-04T08:45:56.957Z,13.32
2022-11-04T08:48:24.987Z,13.23
2022-11-04T08:50:54.216Z,13.19
2022-11-04T08:53:22.404Z,13.07
2022-11-04T08:55:50.562Z,13.01
2022-11-04T08:58:19.223Z,12.92
2022-11-04T09:00:47.505Z,12.84
2022-11-04T09:03:16.048Z,12.91
2022-11-04T09:05:45.944Z,12.95
2022-11-04T09:08:18.051Z,13.00
2022-11-04T09:10:48.033Z,12.93
2022-11-04T09:13:16.592Z,12.94
2022-11-04T09:15:45.265Z,13.11
2022-11-04T09:18:13.349Z,13.22
2022-11-04T09:20:44.993Z,13.24
2022-11-04T09:23:13.049Z,13.25
2022-11-04T09:25:41.338Z,13.42
2022-11-04T09:28:09.305Z,13.56
2022-11-04T09:30:37.639Z,13.62
2022-11-04T09:33:06.034Z,13.77
2022-11-04T09:35:34.238Z,13.83
2022-11-04T09:38:02.406Z,13.77
2022-11-04T09:40:34.067Z,13.80
2022-11-04T09:43:02.236Z,13.74
2022-11-04T09:45:31.946Z,13.69
2022-11-04T09:48:07.727Z,13.81
2022-11-04T09:50:42.869Z,13.85
2022-11-04T09:53:17.793Z,14.05
2022-11-04T09:55:57.888Z,14.29
2022-11-04T09:58:26.125Z,14.43
2022-11-04T10:01:06.622Z,14.56
2022-11-04T10:03:46.996Z,14.58
2022-11-04T10:06:33.860Z,14.52
2022-11-04T10:09:21.477Z,14.44
2022-11-04T10:12:08.679Z,14.37
2022-11-04T10:14:36.846Z,14.27
2022-11-04T10:17:10.957Z,14.24
2022-11-04T10:19:45.182Z,14.17
2022-11-04T10:22:29.339Z,14.31
2022-11-04T10:24:57.291Z,14.61
2022-11-04T10:27:27.612Z,14.80
2022-11-04T10:30:00.699Z,14.80
2022-11-04T10:32:33.396Z,14.75
2022-11-04T10:35:07.626Z,14.79
2022-11-04T10:37:35.770Z,15.01
2022-11-04T10:40:18.097Z,15.08
2022-11-04T10:42:46.332Z,14.96
2022-11-04T10:45:14.903Z,14.76
2022-11-04T10:47:48.018Z,14.63
2022-11-04T10:50:29.550Z,14.71
2022-11-04T10:53:16.108Z,14.79
2022-11-04T10:55:49.687Z,14.76
2022-11-04T10:58:22.020Z,14.69
2022-11-04T11:00:50.513Z,14.79
2022-11-04T11:03:24.793Z,14.88
2022-11-04T11:05:55.109Z,14.96
2022-11-04T11:08:31.104Z,15.14
2022-11-04T11:10:59.749Z,15.28
2022-11-04T11:13:34.650Z,15.34
2022-11-04T11:16:07.593Z,15.38
2022-11-04T11:18:37.553Z,15.45
2022-11-04T11:21:10.497Z,15.51
2022-11-04T11:23:43.141Z,15.52
2022-11-04T11:26:21.462Z,15.41
2022-11-04T11:28:57.457Z,15.35
2022-11-04T11:31:35.257Z,15.24
2022-11-04T11:34:06.116Z,15.05
2022-11-04T11:36:37.637Z,14.87
2022-11-04T11:39:12.493Z,14.87
2022-11-04T11:41:55.980Z,14.86
2022-11-04T11:44:28.743Z,14.88
2022-11-04T11:46:57.827Z,14.98
2022-11-04T11:49:31.239Z,15.18
2022-11-04T11:52:18.443Z,15.29
2022-11-04T11:54:49.408Z,15.38
2022-11-04T11:57:34.666Z,15.40
2022-11-04T12:03:00.585Z,15.64
2022-11-04T12:12:08.946Z,16.10
2022-11-04T12:14:48.566Z,16.28
2022-11-04T12:17:23.129Z,16.41
2022-11-04T12:20:14.937Z,16.44
2022-11-04T12:22:50.378Z,16.46
2022-11-04T12:25:31.067Z,16.41
2022-11-04T12:28:01.992Z,16.38
2022-11-04T12:30:38.395Z,16.29
2022-11-04T12:33:25.681Z,16.23
2022-11-04T12:36:12.476Z,16.23
2022-11-04T12:38:49.670Z,16.21
2022-11-04T12:42:06.286Z,16.26
2022-11-04T12:44:31.602Z,16.25
2022-11-04T12:46:59.620Z,16.04
2022-11-04T12:49:36.634Z,15.92
2022-11-04T12:52:23.397Z,15.84
2022-11-04T12:55:10.317Z,15.72
2022-11-04T12:57:52.555Z,15.56
2022-11-04T13:00:24.867Z,15.38
2022-11-04T13:02:56.284Z,15.21
2022-11-04T13:05:34.181Z,15.20
2022-11-04T13:08:15.363Z,15.18
2022-11-04T13:10:56.232Z,15.10
2022-11-04T13:13:28.505Z,15.11
2022-11-04T13:15:58.623Z,15.06
2022-11-04T13:18:29.023Z,15.08
2022-11-04T13:21:06.742Z,15.07
2022-11-04T13:23:39.422Z,15.00
2022-11-04T13:26:12.104Z,14.94
2022-11-04T13:28:41.953Z,14.86
2022-11-04T13:31:15.810Z,14.87
2022-11-04T13:33:57.814Z,14.90
2022-11-04T13:36:45.034Z,14.96
2022-11-04T13:39:22.087Z,14.99
2022-11-04T13:42:09.398Z,14.97
2022-11-04T13:44:40.111Z,14.99
2022-11-04T13:47:21.594Z,15.04
2022-11-04T13:49:55.575Z,15.08
2022-11-04T13:52:30.156Z,15.07
2022-11-04T13:55:00.206Z,15.02
2022-11-04T13:57:29.861Z,14.97
2022-11-04T14:00:07.238Z,14.98
2022-11-04T14:02:45.892Z,15.00
2022-11-04T14:05:29.941Z,14.88
2022-11-04T14:08:03.777Z,14.79
2022-11-04T14:10:37.756Z,14.78
2022-11-04T14:13:24.688Z,14.77
2022-11-04T14:16:02.880Z,14.73
2022-11-04T14:18:35.814Z,14.69
2022-11-04T14:21:06.692Z,14.65
2022-11-04T14:23:36.525Z,14.55
2022-11-04T14:26:06.863Z,14.45
2022-11-04T14:28:35.590Z,14.38
2022-11-04T14:31:16.949Z,14.34
2022-11-04T14:33:58.287Z,14.30
2022-11-04T14:36:30.626Z,14.34
2022-11-04T14:39:11.053Z,14.39
2022-11-04T14:41:51.434Z,14.44
2022-11-04T14:44:33.098Z,14.48
2022-11-04T14:47:27.243Z,14.52
2022-11-04T14:49:58.623Z,14.49
2022-11-04T14:52:33.510Z,14.39
2022-11-04T14:55:05.581Z,14.39
2022-11-04T14:57:42.679Z,14.43
2022-11-04T15:00:23.109Z,14.47
2022-11-04T15:06:34.496Z,14.45
2022-11-04T15:09:22.712Z,14.49
2022-11-04T15:12:11.055Z,14.49
2022-11-04T15:14:39.126Z,14.39
2022-11-04T15:17:07.401Z,14.25
2022-11-04T15:19:36.306Z,14.09
2022-11-04T15:22:06.578Z,14.02
2022-11-04T15:24:35.103Z,14.01
2022-11-04T15:27:06.237Z,14.05
2022-11-04T15:29:34.513Z,14.10
2022-11-04T15:32:05.202Z,14.11
2022-11-04T15:34:34.546Z,14.09
2022-11-04T15:37:05.655Z,14.06
2022-11-04T15:39:40.151Z,13.97
2022-11-04T15:42:29.640Z,13.86
2022-11-04T15:44:57.825Z,13.74
2022-11-04T15:47:27.386Z,13.63
2022-11-04T15:50:03.192Z,13.46
2022-11-04T15:52:31.495Z,13.31
2022-11-04T15:55:00.687Z,13.17
2022-11-04T15:57:32.721Z,13.08
2022-11-04T16:00:22.431Z,13.02
2022-11-04T16:02:51.933Z,12.98
2022-11-04T16:05:19.971Z,12.96
2022-11-04T16:07:52.591Z,12.85
2022-11-04T16:10:24.816Z,12.85
2022-11-04T16:13:03.057Z,12.85
2022-11-04T16:15:39.901Z,12.85
2022-11-04T16:18:21.691Z,12.87
2022-11-04T16:20:50.892Z,12.90
2022-11-04T16:23:23.915Z,12.91
2022-11-04T16:26:00.279Z,12.84
2022-11-04T16:28:30.703Z,12.79
2022-11-04T16:31:03.380Z,12.77
2022-11-04T16:33:31.452Z,12.90
2022-11-04T16:35:59.418Z,13.00
2022-11-04T16:38:27.590Z,13.11
2022-11-04T16:40:55.661Z,13.21
2022-11-04T16:43:23.701Z,13.16
2022-11-04T16:45:53.975Z,13.07
2022-11-04T16:48:24.785Z,12.87
2022-11-04T16:50:53.143Z,12.85
2022-11-04T16:53:21.011Z,12.85
2022-11-04T16:55:50.157Z,12.73
2022-11-04T16:58:18.891Z,12.71
2022-11-04T17:00:47.255Z,12.67
2022-11-04T17:03:22.634Z,12.59
2022-11-04T17:05:51.532Z,12.61
2022-11-04T17:08:19.384Z,12.69
2022-11-04T17:10:47.535Z,12.65
2022-11-04T17:13:15.633Z,12.68
2022-11-04T17:15:43.824Z,12.76
2022-11-04T17:18:17.097Z,12.58
2022-11-04T17:20:47.944Z,12.55
2022-11-04T17:23:16.212Z,12.50
2022-11-04T17:25:45.098Z,12.33
2022-11-04T17:28:14.215Z,12.22
2022-11-04T17:30:43.287Z,12.29
2022-11-04T17:33:15.179Z,12.26
2022-11-04T17:35:45.065Z,12.25
2022-11-04T17:38:13.440Z,12.26
2022-11-04T17:40:59.837Z,12.27
2022-11-04T17:43:46.971Z,12.33
2022-11-04T17:46:33.997Z,12.22
2022-11-04T17:49:03.067Z,12.23
2022-11-04T17:51:31.854Z,12.38
2022-11-04T17:53:59.925Z,12.38
2022-11-04T17:56:27.709Z,12.34
2022-11-04T17:58:55.623Z,12.22
2022-11-04T18:01:24.219Z,12.30
2022-11-04T18:03:53.740Z,12.43
2022-11-04T18:06:22.488Z,12.33
2022-11-04T18:08:54.596Z,12.08
2022-11-04T18:11:42.736Z,11.99
2022-11-04T18:14:17.041Z,12.01
2022-11-04T18:16:47.587Z,12.05
2022-11-04T18:19:17.125Z,12.07
2022-11-04T18:21:45.694Z,12.11
2022-11-04T18:24:14.968Z,12.16
2022-11-04T18:26:43.335Z,12.11
2022-11-04T18:29:11.260Z,12.03
2022-11-04T18:31:44.665Z,11.99
2022-11-04T18:34:19.287Z,12.03
2022-11-04T18:36:48.022Z,11.99
2022-11-04T18:39:18.088Z,11.96
2022-11-04T18:41:46.617Z,11.89
2022-11-04T18:44:16.596Z,11.86
2022-11-04T18:46:44.855Z,11.69
2022-11-04T18:49:13.404Z,11.37
2022-11-04T18:51:42.136Z,11.18
2022-11-04T18:54:11.205Z,11.07
2022-11-04T18:56:39.575Z,10.85
2022-11-04T18:59:13.004Z,10.80
2022-11-04T19:01:42.348Z,11.01
2022-11-04T19:04:10.737Z,11.13
2022-11-04T19:06:43.652Z,11.23
2022-11-04T19:12:20.370Z,11.15
2022-11-04T19:14:48.366Z,11.11
2022-11-04T19:17:17.052Z,11.12
2022-11-04T19:19:45.076Z,11.17
2022-11-04T19:22:13.087Z,11.19
2022-11-04T19:24:41.126Z,11.23
2022-11-04T19:27:09.125Z,11.41
2022-11-04T19:29:37.194Z,11.47
2022-11-04T19:32:09.590Z,11.43
2022-11-04T19:34:41.264Z,11.41
2022-11-04T19:37:09.460Z,11.33
2022-11-04T19:39:37.800Z,11.45
2022-11-04T19:42:38.918Z,11.66
2022-11-04T19:45:07.160Z,11.61
2022-11-04T19:47:36.185Z,11.46
2022-11-04T19:50:04.568Z,11.25
2022-11-04T19:52:32.817Z,11.23
2022-11-04T19:55:01.010Z,11.48
2022-11-04T19:57:29.497Z,11.47
2022-11-04T19:59:57.444Z,11.61
2022-11-04T20:02:25.680Z,11.73
2022-11-04T20:04:54.078Z,11.81
2022-11-04T20:07:21.982Z,11.88
2022-11-04T20:09:50.079Z,12.00
2022-11-04T20:12:36.658Z,11.84
2022-11-04T20:15:04.926Z,11.63
2022-11-04T20:17:33.414Z,11.61
2022-11-04T20:20:01.483Z,11.73
2022-11-04T20:22:29.452Z,11.96
2022-11-04T20:24:58.031Z,11.93
2022-11-04T20:27:26.002Z,11.83
2022-11-04T20:29:53.972Z,11.78
2022-11-04T20:32:22.290Z,11.84
2022-11-04T20:34:50.336Z,12.02
2022-11-04T20:37:18.489Z,11.84
2022-11-04T20:39:47.306Z,11.82
2022-11-04T20:42:15.309Z,12.00
2022-11-04T20:44:43.417Z,12.06
2022-11-04T20:47:11.494Z,12.01
2022-11-04T20:49:39.592Z,12.08
2022-11-04T20:52:07.626Z,12.10
2022-11-04T20:54:35.615Z,11.96
2022-11-04T20:57:03.909Z,11.76
2022-11-04T20:59:31.842Z,11.68
2022-11-04T21:02:00.017Z,11.81
2022-11-04T21:04:31.958Z,11.79
2022-11-04T21:07:03.955Z,11.76
2022-11-04T21:09:32.755Z,11.67
2022-11-04T21:12:00.691Z,11.59
2022-11-04T21:14:30.419Z,11.75
2022-11-04T21:16:58.680Z,11.93
2022-11-04T21:19:26.949Z,11.86
2022-11-04T21:21:54.970Z,11.81
2022-11-04T21:24:23.636Z,11.88
2022-11-04T21:26:51.777Z,11.82
2022-11-04T21:29:20.261Z,11.94
2022-11-04T21:31:49.037Z,11.96
2022-11-04T21:34:17.387Z,11.93
2022-11-04T21:36:45.906Z,11.99
2022-11-04T21:39:14.486Z,12.14
2022-11-04T21:41:42.554Z,12.20
2022-11-04T21:44:12.496Z,12.17
2022-11-04T21:46:40.951Z,12.06
2022-11-04T21:49:09.439Z,12.10
2022-11-04T21:51:37.448Z,12.20
2022-11-04T21:54:07.254Z,12.10
2022-11-04T21:56:35.493Z,11.99
2022-11-04T21:59:04.193Z,12.03
2022-11-04T22:01:33.005Z,12.14
2022-11-04T22:04:02.054Z,12.17
2022-11-04T22:06:34.525Z,12.20
2022-11-04T22:09:04.762Z,12.21
2022-11-04T22:11:33.738Z,11.89
2022-11-04T22:14:03.903Z,11.26
2022-11-04T22:16:33.193Z,10.98
2022-11-04T22:19:02.346Z,10.77
2022-11-04T22:21:31.115Z,10.75
2022-11-04T22:23:59.826Z,11.00
2022-11-04T22:26:29.513Z,11.39
2022-11-04T22:28:57.939Z,11.73
2022-11-04T22:31:30.474Z,11.82
2022-11-04T22:33:59.071Z,11.83
2022-11-04T22:36:27.945Z,11.91
2022-11-04T22:38:56.461Z,11.97
2022-11-04T22:41:26.230Z,12.03
2022-11-04T22:43:55.449Z,11.88
2022-11-04T22:46:28.196Z,11.90
2022-11-04T22:48:56.713Z,11.86
2022-11-04T22:51:25.334Z,11.66
2022-11-04T22:54:01.397Z,11.67
2022-11-04T22:56:32.902Z,11.60
2022-11-04T22:59:01.246Z,11.50
2022-11-04T23:01:31.594Z,11.58
2022-11-04T23:04:00.554Z,11.84
2022-11-04T23:06:28.969Z,11.91
2022-11-04T23:09:00.290Z,11.84
2022-11-04T23:11:49.287Z,11.58
2022-11-04T23:14:39.495Z,11.50
2022-11-04T23:17:34.004Z,11.71
2022-11-04T23:20:02.032Z,11.90
2022-11-04T23:22:48.713Z,12.03
2022-11-04T23:25:16.765Z,12.16
2022-11-04T23:28:07.430Z,12.15
2022-11-04T23:30:37.195Z,12.14
2022-11-04T23:33:07.044Z,12.26
2022-11-04T23:35:56.399Z,12.26
2022-11-04T23:38:25.193Z,11.50
2022-11-04T23:41:20.189Z,11.26
2022-11-04T23:43:48.464Z,11.42
2022-11-04T23:46:41.180Z,11.53
2022-11-04T23:49:30.134Z,11.61
2022-11-04T23:52:17.262Z,11.87
2022-11-04T23:55:08.643Z,11.94
2022-11-04T23:57:55.273Z,11.97
